DLH2122 EDLW-EDDN
Flight info
| Callsign | DLH2122 |
|---|---|
| Flight time | 0h 52m |
| Altitude | 21000 |
| Route | GMH8Q GMH DCT ARPEG DCT AMETU DCT KERAX DCT KOMIB T193 ERTES T194 DODAS DODAS1T |
| Aircraft | A320/M-SDE3FGHIRWY/LB1 |
Departure
| Time | 2026-04-29 16:43 |
|---|---|
| Airport | Dortmund Airport (EDLW) |
Arrival
| Time | 2026-04-29 17:36 |
|---|---|
| Airport | Nuremberg Airport (EDDN) |
| Time | Latitude | Longitude | Altitude | Speed | Heading |
|---|---|---|---|---|---|
| 2026-04-29 16:22 | 51.51639 | 7.61478 | 422 ft | 0 kts | 151° |
| 2026-04-29 16:34 | 51.51651 | 7.61467 | 419 ft | 4 kts | 156° |
| 2026-04-29 16:34 | 51.51677 | 7.61455 | 415 ft | 4 kts | 174° |
| 2026-04-29 16:35 | 51.51703 | 7.61456 | 415 ft | 4 kts | 197° |
| 2026-04-29 16:35 | 51.51726 | 7.61475 | 412 ft | 4 kts | 222° |
| 2026-04-29 16:35 | 51.51740 | 7.61499 | 413 ft | 0 kts | 240° |
| 2026-04-29 16:38 | 51.51739 | 7.61496 | 413 ft | 2 kts | 240° |
| 2026-04-29 16:38 | 51.51700 | 7.61387 | 426 ft | 13 kts | 240° |
| 2026-04-29 16:38 | 51.51660 | 7.61277 | 423 ft | 9 kts | 240° |
| 2026-04-29 16:39 | 51.51632 | 7.61198 | 421 ft | 7 kts | 240° |
| 2026-04-29 16:39 | 51.51609 | 7.61131 | 418 ft | 8 kts | 241° |
| 2026-04-29 16:39 | 51.51571 | 7.60991 | 426 ft | 15 kts | 242° |
| 2026-04-29 16:39 | 51.51522 | 7.60851 | 415 ft | 14 kts | 240° |
| 2026-04-29 16:40 | 51.51478 | 7.60728 | 415 ft | 1 kts | 240° |
| 2026-04-29 16:40 | 51.51477 | 7.60727 | 415 ft | 1 kts | 240° |
| 2026-04-29 16:40 | 51.51432 | 7.60599 | 415 ft | 7 kts | 240° |
| 2026-04-29 16:40 | 51.51422 | 7.60570 | 425 ft | 0 kts | 240° |
| 2026-04-29 16:41 | 51.51396 | 7.60495 | 422 ft | 32 kts | 241° |
| 2026-04-29 16:41 | 51.51359 | 7.60343 | 427 ft | 10 kts | 281° |
| 2026-04-29 16:41 | 51.51406 | 7.60263 | 424 ft | 10 kts | 336° |
| 2026-04-29 16:42 | 51.51479 | 7.60243 | 420 ft | 13 kts | 27° |
| 2026-04-29 16:42 | 51.51515 | 7.60326 | 415 ft | 0 kts | 61° |
| 2026-04-29 16:42 | 51.51517 | 7.60331 | 416 ft | 3 kts | 61° |
| 2026-04-29 16:42 | 51.51630 | 7.60655 | 418 ft | 71 kts | 60° |
| 2026-04-29 16:43 | 51.51981 | 7.61645 | 413 ft | 131 kts | 60° |
| 2026-04-29 16:43 | 51.52457 | 7.63006 | 864 ft | 144 kts | 63° |
| 2026-04-29 16:43 | 51.52938 | 7.64498 | 1493 ft | 156 kts | 65° |
| 2026-04-29 16:43 | 51.53425 | 7.66099 | 2166 ft | 163 kts | 66° |
| 2026-04-29 16:44 | 51.53909 | 7.67771 | 2796 ft | 170 kts | 67° |
| 2026-04-29 16:44 | 51.54411 | 7.69587 | 3337 ft | 185 kts | 68° |
| 2026-04-29 16:44 | 51.54932 | 7.71557 | 3981 ft | 197 kts | 69° |
| 2026-04-29 16:44 | 51.55465 | 7.73653 | 4685 ft | 207 kts | 70° |
| 2026-04-29 16:45 | 51.56006 | 7.75842 | 5448 ft | 214 kts | 70° |
| 2026-04-29 16:45 | 51.56544 | 7.78103 | 6223 ft | 220 kts | 70° |
| 2026-04-29 16:45 | 51.56952 | 7.80560 | 6763 ft | 241 kts | 89° |
| 2026-04-29 16:45 | 51.56398 | 7.83172 | 7359 ft | 261 kts | 125° |
| 2026-04-29 16:46 | 51.54880 | 7.84873 | 8132 ft | 279 kts | 159° |
| 2026-04-29 16:46 | 51.52910 | 7.84964 | 8946 ft | 295 kts | 192° |
| 2026-04-29 16:46 | 51.51097 | 7.83352 | 9751 ft | 305 kts | 221° |
| 2026-04-29 16:46 | 51.49720 | 7.80721 | 10553 ft | 311 kts | 239° |
| 2026-04-29 16:47 | 51.48545 | 7.77692 | 10927 ft | 332 kts | 231° |
| 2026-04-29 16:47 | 51.46704 | 7.75310 | 11162 ft | 353 kts | 203° |
| 2026-04-29 16:47 | 51.44298 | 7.74527 | 11682 ft | 358 kts | 174° |
| 2026-04-29 16:47 | 51.41874 | 7.75347 | 12368 ft | 358 kts | 158° |
| 2026-04-29 16:48 | 51.39537 | 7.76771 | 13115 ft | 361 kts | 154° |
| 2026-04-29 16:48 | 51.37189 | 7.78273 | 13839 ft | 366 kts | 156° |
| 2026-04-29 16:48 | 51.34762 | 7.79621 | 14486 ft | 372 kts | 159° |
| 2026-04-29 16:48 | 51.32291 | 7.80902 | 15137 ft | 376 kts | 159° |
| 2026-04-29 16:49 | 51.29787 | 7.82189 | 15789 ft | 380 kts | 159° |
| 2026-04-29 16:49 | 51.27258 | 7.83517 | 16406 ft | 384 kts | 159° |
| 2026-04-29 16:49 | 51.24742 | 7.84874 | 17021 ft | 389 kts | 158° |
| 2026-04-29 16:49 | 51.22176 | 7.86295 | 17633 ft | 392 kts | 157° |
| 2026-04-29 16:50 | 51.19691 | 7.88095 | 18231 ft | 393 kts | 146° |
| 2026-04-29 16:50 | 51.17464 | 7.90606 | 18789 ft | 392 kts | 135° |
| 2026-04-29 16:50 | 51.15573 | 7.93718 | 19311 ft | 390 kts | 124° |
| 2026-04-29 16:50 | 51.14071 | 7.97290 | 19882 ft | 387 kts | 116° |
| 2026-04-29 16:51 | 51.12709 | 8.00998 | 20473 ft | 388 kts | 116° |
| 2026-04-29 16:51 | 51.11330 | 8.04724 | 21054 ft | 390 kts | 116° |
| 2026-04-29 16:51 | 51.09950 | 8.08438 | 21297 ft | 390 kts | 115° |
| 2026-04-29 16:51 | 51.08548 | 8.12211 | 21340 ft | 398 kts | 115° |
| 2026-04-29 16:52 | 51.07134 | 8.16013 | 21330 ft | 400 kts | 116° |
| 2026-04-29 16:52 | 51.05711 | 8.19820 | 21331 ft | 400 kts | 116° |
| 2026-04-29 16:52 | 51.04302 | 8.23576 | 21333 ft | 401 kts | 116° |
| 2026-04-29 16:52 | 51.02874 | 8.27377 | 21329 ft | 402 kts | 116° |
| 2026-04-29 16:53 | 51.01495 | 8.31238 | 21334 ft | 399 kts | 111° |
| 2026-04-29 16:53 | 51.00376 | 8.35255 | 21336 ft | 397 kts | 109° |
| 2026-04-29 16:53 | 50.99268 | 8.39285 | 21340 ft | 397 kts | 109° |
| 2026-04-29 16:53 | 50.98156 | 8.43317 | 21338 ft | 398 kts | 109° |
| 2026-04-29 16:54 | 50.97047 | 8.47331 | 21344 ft | 398 kts | 109° |
| 2026-04-29 16:54 | 50.95935 | 8.51350 | 21363 ft | 398 kts | 109° |
| 2026-04-29 16:54 | 50.94821 | 8.55370 | 21356 ft | 398 kts | 109° |
| 2026-04-29 16:54 | 50.93705 | 8.59388 | 21353 ft | 398 kts | 109° |
| 2026-04-29 16:55 | 50.92602 | 8.63346 | 21349 ft | 398 kts | 109° |
| 2026-04-29 16:55 | 50.91481 | 8.67363 | 21346 ft | 398 kts | 109° |
| 2026-04-29 16:55 | 50.90357 | 8.71381 | 21352 ft | 398 kts | 109° |
| 2026-04-29 16:55 | 50.89231 | 8.75397 | 21350 ft | 398 kts | 109° |
| 2026-04-29 16:56 | 50.88105 | 8.79408 | 21352 ft | 398 kts | 109° |
| 2026-04-29 16:56 | 50.86979 | 8.83421 | 21350 ft | 398 kts | 109° |
| 2026-04-29 16:56 | 50.85850 | 8.87429 | 21352 ft | 398 kts | 109° |
| 2026-04-29 16:56 | 50.84716 | 8.91429 | 21351 ft | 398 kts | 109° |
| 2026-04-29 16:57 | 50.83482 | 8.95372 | 21350 ft | 402 kts | 116° |
| 2026-04-29 16:57 | 50.81840 | 8.98994 | 21349 ft | 408 kts | 126° |
| 2026-04-29 16:57 | 50.79950 | 9.02296 | 21345 ft | 409 kts | 127° |
| 2026-04-29 16:57 | 50.78034 | 9.05623 | 21344 ft | 409 kts | 127° |
| 2026-04-29 16:58 | 50.76114 | 9.08956 | 21342 ft | 409 kts | 127° |
| 2026-04-29 16:58 | 50.74201 | 9.12280 | 21343 ft | 410 kts | 127° |
| 2026-04-29 16:58 | 50.72283 | 9.15612 | 21340 ft | 410 kts | 127° |
| 2026-04-29 16:58 | 50.70363 | 9.18944 | 21344 ft | 410 kts | 127° |
| 2026-04-29 16:59 | 50.68441 | 9.22271 | 21341 ft | 410 kts | 127° |
| 2026-04-29 16:59 | 50.66521 | 9.25585 | 21342 ft | 410 kts | 127° |
| 2026-04-29 16:59 | 50.64594 | 9.28898 | 21342 ft | 409 kts | 127° |
| 2026-04-29 16:59 | 50.62667 | 9.32212 | 21344 ft | 410 kts | 127° |
| 2026-04-29 17:00 | 50.60741 | 9.35520 | 21363 ft | 410 kts | 127° |
| 2026-04-29 17:00 | 50.58816 | 9.38826 | 21352 ft | 410 kts | 127° |
| 2026-04-29 17:00 | 50.56914 | 9.42092 | 21345 ft | 410 kts | 127° |
| 2026-04-29 17:00 | 50.54985 | 9.45401 | 21342 ft | 410 kts | 127° |
| 2026-04-29 17:01 | 50.53050 | 9.48713 | 21339 ft | 410 kts | 127° |
| 2026-04-29 17:01 | 50.51118 | 9.52015 | 21337 ft | 410 kts | 127° |
| 2026-04-29 17:01 | 50.49183 | 9.55318 | 21333 ft | 410 kts | 127° |
| 2026-04-29 17:01 | 50.47251 | 9.58610 | 21330 ft | 410 kts | 128° |
| 2026-04-29 17:02 | 50.45304 | 9.61892 | 21325 ft | 411 kts | 128° |
| 2026-04-29 17:02 | 50.43340 | 9.65169 | 21320 ft | 411 kts | 128° |
| 2026-04-29 17:02 | 50.41368 | 9.68432 | 21323 ft | 412 kts | 128° |
| 2026-04-29 17:02 | 50.39392 | 9.71686 | 21324 ft | 412 kts | 128° |
| 2026-04-29 17:03 | 50.37412 | 9.74942 | 21339 ft | 412 kts | 128° |
| 2026-04-29 17:03 | 50.35436 | 9.78197 | 21331 ft | 413 kts | 128° |
| 2026-04-29 17:03 | 50.33485 | 9.81416 | 21332 ft | 413 kts | 128° |
| 2026-04-29 17:03 | 50.31486 | 9.84718 | 21329 ft | 413 kts | 128° |
| 2026-04-29 17:04 | 50.29531 | 9.87948 | 21328 ft | 413 kts | 128° |
| 2026-04-29 17:04 | 50.27553 | 9.91214 | 21328 ft | 413 kts | 128° |
| 2026-04-29 17:04 | 50.25571 | 9.94486 | 21324 ft | 414 kts | 128° |
| 2026-04-29 17:04 | 50.23589 | 9.97752 | 21328 ft | 414 kts | 128° |
| 2026-04-29 17:05 | 50.21606 | 10.01007 | 21333 ft | 414 kts | 128° |
| 2026-04-29 17:05 | 50.19622 | 10.04249 | 21332 ft | 414 kts | 128° |
| 2026-04-29 17:05 | 50.17630 | 10.07498 | 21330 ft | 414 kts | 128° |
| 2026-04-29 17:05 | 50.15641 | 10.10741 | 21322 ft | 414 kts | 128° |
| 2026-04-29 17:06 | 50.13647 | 10.13992 | 21351 ft | 414 kts | 128° |
| 2026-04-29 17:06 | 50.11682 | 10.17198 | 21344 ft | 414 kts | 128° |
| 2026-04-29 17:06 | 50.09692 | 10.20442 | 21338 ft | 414 kts | 128° |
| 2026-04-29 17:06 | 50.07815 | 10.23828 | 21330 ft | 409 kts | 121° |
| 2026-04-29 17:07 | 50.06334 | 10.27563 | 21323 ft | 403 kts | 111° |
| 2026-04-29 17:07 | 50.05535 | 10.30181 | 21323 ft | 402 kts | 110° |
| 2026-04-29 17:07 | 50.03941 | 10.35444 | 21316 ft | 403 kts | 110° |
| 2026-04-29 17:07 | 50.02737 | 10.39382 | 21317 ft | 403 kts | 110° |
| 2026-04-29 17:08 | 50.01529 | 10.43313 | 21317 ft | 403 kts | 110° |
| 2026-04-29 17:08 | 50.00317 | 10.47236 | 21319 ft | 403 kts | 110° |
| 2026-04-29 17:08 | 49.99105 | 10.51156 | 21321 ft | 403 kts | 110° |
| 2026-04-29 17:08 | 49.97878 | 10.55082 | 21348 ft | 405 kts | 113° |
| 2026-04-29 17:09 | 49.96308 | 10.58743 | 21330 ft | 405 kts | 124° |
| 2026-04-29 17:09 | 49.94330 | 10.61844 | 20950 ft | 405 kts | 136° |
| 2026-04-29 17:09 | 49.91993 | 10.64288 | 20491 ft | 406 kts | 148° |
| 2026-04-29 17:09 | 49.89397 | 10.65998 | 20051 ft | 405 kts | 158° |
| 2026-04-29 17:10 | 49.86763 | 10.67353 | 19915 ft | 392 kts | 158° |
| 2026-04-29 17:10 | 49.84219 | 10.68687 | 19764 ft | 380 kts | 158° |
| 2026-04-29 17:10 | 49.81706 | 10.70023 | 19166 ft | 383 kts | 158° |
| 2026-04-29 17:10 | 49.79239 | 10.71469 | 18572 ft | 384 kts | 151° |
| 2026-04-29 17:11 | 49.76971 | 10.73684 | 17888 ft | 379 kts | 136° |
| 2026-04-29 17:11 | 49.75124 | 10.76563 | 17219 ft | 376 kts | 125° |
| 2026-04-29 17:11 | 49.73621 | 10.79797 | 16575 ft | 374 kts | 117° |
| 2026-04-29 17:11 | 49.72549 | 10.83348 | 15926 ft | 357 kts | 103° |
| 2026-04-29 17:12 | 49.72038 | 10.87028 | 15200 ft | 345 kts | 95° |
| 2026-04-29 17:12 | 49.71675 | 10.90650 | 14483 ft | 338 kts | 95° |
| 2026-04-29 17:12 | 49.71343 | 10.94220 | 13721 ft | 333 kts | 94° |
| 2026-04-29 17:12 | 49.71234 | 10.95416 | 13448 ft | 331 kts | 94° |
| 2026-04-29 17:13 | 49.70701 | 11.01193 | 12140 ft | 323 kts | 95° |
| 2026-04-29 17:13 | 49.70379 | 11.04606 | 11375 ft | 317 kts | 96° |
| 2026-04-29 17:13 | 49.70057 | 11.07949 | 10628 ft | 313 kts | 95° |
| 2026-04-29 17:13 | 49.69735 | 11.11246 | 9869 ft | 308 kts | 95° |
| 2026-04-29 17:14 | 49.69261 | 11.14426 | 9323 ft | 298 kts | 111° |
| 2026-04-29 17:14 | 49.68145 | 11.16981 | 9195 ft | 279 kts | 131° |
| 2026-04-29 17:14 | 49.66648 | 11.18753 | 8953 ft | 267 kts | 150° |
| 2026-04-29 17:14 | 49.64903 | 11.19606 | 8569 ft | 263 kts | 171° |
| 2026-04-29 17:15 | 49.63093 | 11.19495 | 8183 ft | 259 kts | 186° |
| 2026-04-29 17:15 | 49.61414 | 11.18695 | 7800 ft | 257 kts | 209° |
| 2026-04-29 17:15 | 49.60140 | 11.16881 | 7619 ft | 241 kts | 236° |
| 2026-04-29 17:15 | 49.59530 | 11.14624 | 7487 ft | 219 kts | 261° |
| 2026-04-29 17:16 | 49.59530 | 11.12387 | 7356 ft | 201 kts | 282° |
| 2026-04-29 17:16 | 49.59735 | 11.10328 | 7237 ft | 188 kts | 281° |
| 2026-04-29 17:16 | 49.59861 | 11.09031 | 7102 ft | 182 kts | 281° |
| 2026-04-29 17:16 | 49.60045 | 11.07121 | 6826 ft | 180 kts | 281° |
| 2026-04-29 17:17 | 49.60229 | 11.05216 | 6506 ft | 179 kts | 281° |
| 2026-04-29 17:17 | 49.60412 | 11.03321 | 6187 ft | 178 kts | 281° |
| 2026-04-29 17:17 | 49.60596 | 11.01429 | 5865 ft | 178 kts | 280° |
| 2026-04-29 17:17 | 49.60779 | 10.99537 | 5549 ft | 178 kts | 281° |
| 2026-04-29 17:18 | 49.60961 | 10.97660 | 5333 ft | 173 kts | 281° |
| 2026-04-29 17:18 | 49.61131 | 10.95883 | 5141 ft | 164 kts | 281° |
| 2026-04-29 17:18 | 49.61299 | 10.94150 | 4888 ft | 163 kts | 281° |
| 2026-04-29 17:18 | 49.61464 | 10.92431 | 4637 ft | 162 kts | 281° |
| 2026-04-29 17:19 | 49.61628 | 10.90718 | 4384 ft | 161 kts | 281° |
| 2026-04-29 17:19 | 49.61794 | 10.89013 | 4133 ft | 161 kts | 282° |
| 2026-04-29 17:19 | 49.61959 | 10.87317 | 3872 ft | 160 kts | 282° |
| 2026-04-29 17:19 | 49.62124 | 10.85621 | 3619 ft | 159 kts | 282° |
| 2026-04-29 17:20 | 49.62287 | 10.83933 | 3387 ft | 159 kts | 284° |
| 2026-04-29 17:20 | 49.62449 | 10.82252 | 3239 ft | 158 kts | 284° |
| 2026-04-29 17:20 | 49.62610 | 10.80575 | 3371 ft | 159 kts | 284° |
| 2026-04-29 17:20 | 49.62772 | 10.78892 | 3455 ft | 157 kts | 283° |
| 2026-04-29 17:21 | 49.62932 | 10.77213 | 3214 ft | 158 kts | 282° |
| 2026-04-29 17:21 | 49.63089 | 10.75560 | 3252 ft | 157 kts | 282° |
| 2026-04-29 17:21 | 49.63248 | 10.73880 | 3510 ft | 160 kts | 282° |
| 2026-04-29 17:21 | 49.63412 | 10.72170 | 3790 ft | 163 kts | 282° |
| 2026-04-29 17:22 | 49.63578 | 10.70420 | 4086 ft | 168 kts | 282° |
| 2026-04-29 17:22 | 49.63744 | 10.68645 | 4040 ft | 165 kts | 282° |
| 2026-04-29 17:22 | 49.63906 | 10.66900 | 4033 ft | 164 kts | 282° |
| 2026-04-29 17:22 | 49.64068 | 10.65170 | 4024 ft | 162 kts | 283° |
| 2026-04-29 17:23 | 49.64230 | 10.63445 | 4031 ft | 162 kts | 282° |
| 2026-04-29 17:23 | 49.64392 | 10.61724 | 4022 ft | 162 kts | 282° |
| 2026-04-29 17:23 | 49.64546 | 10.59984 | 4024 ft | 164 kts | 278° |
| 2026-04-29 17:23 | 49.64496 | 10.58225 | 4030 ft | 165 kts | 262° |
| 2026-04-29 17:24 | 49.64179 | 10.56547 | 4027 ft | 165 kts | 246° |
| 2026-04-29 17:24 | 49.63612 | 10.55015 | 4028 ft | 164 kts | 231° |
| 2026-04-29 17:24 | 49.62839 | 10.53741 | 4026 ft | 162 kts | 215° |
| 2026-04-29 17:24 | 49.61918 | 10.52794 | 4025 ft | 157 kts | 201° |
| 2026-04-29 17:25 | 49.60909 | 10.52207 | 4030 ft | 153 kts | 187° |
| 2026-04-29 17:25 | 49.59872 | 10.51941 | 4025 ft | 151 kts | 181° |
| 2026-04-29 17:25 | 49.58824 | 10.51718 | 4025 ft | 152 kts | 179° |
| 2026-04-29 17:25 | 49.57791 | 10.51774 | 4017 ft | 145 kts | 161° |
| 2026-04-29 17:26 | 49.56850 | 10.52245 | 4013 ft | 140 kts | 145° |
| 2026-04-29 17:26 | 49.56049 | 10.53043 | 4012 ft | 135 kts | 131° |
| 2026-04-29 17:26 | 49.55429 | 10.54090 | 4015 ft | 131 kts | 117° |
| 2026-04-29 17:26 | 49.55100 | 10.55377 | 4019 ft | 132 kts | 102° |
| 2026-04-29 17:27 | 49.54866 | 10.56755 | 4018 ft | 134 kts | 98° |
| 2026-04-29 17:27 | 49.54680 | 10.58160 | 4012 ft | 133 kts | 97° |
| 2026-04-29 17:27 | 49.54521 | 10.59569 | 4015 ft | 134 kts | 96° |
| 2026-04-29 17:27 | 49.54374 | 10.60992 | 4012 ft | 134 kts | 96° |
| 2026-04-29 17:28 | 49.54233 | 10.62412 | 4014 ft | 134 kts | 96° |
| 2026-04-29 17:28 | 49.54096 | 10.63835 | 4010 ft | 135 kts | 95° |
| 2026-04-29 17:28 | 49.53960 | 10.65260 | 4016 ft | 134 kts | 95° |
| 2026-04-29 17:28 | 49.53827 | 10.66664 | 4013 ft | 134 kts | 95° |
| 2026-04-29 17:29 | 49.53690 | 10.68107 | 4012 ft | 134 kts | 95° |
| 2026-04-29 17:29 | 49.53556 | 10.69526 | 4011 ft | 134 kts | 95° |
| 2026-04-29 17:29 | 49.53422 | 10.70944 | 4011 ft | 134 kts | 95° |
| 2026-04-29 17:29 | 49.53332 | 10.71888 | 4013 ft | 134 kts | 95° |
| 2026-04-29 17:30 | 49.53153 | 10.73777 | 4015 ft | 134 kts | 94° |
| 2026-04-29 17:30 | 49.53018 | 10.75192 | 4015 ft | 134 kts | 95° |
| 2026-04-29 17:30 | 49.52883 | 10.76615 | 4014 ft | 135 kts | 95° |
| 2026-04-29 17:30 | 49.52746 | 10.78055 | 4015 ft | 134 kts | 94° |
| 2026-04-29 17:31 | 49.52612 | 10.79457 | 4013 ft | 134 kts | 94° |
| 2026-04-29 17:31 | 49.52476 | 10.80879 | 4014 ft | 135 kts | 95° |
| 2026-04-29 17:31 | 49.52339 | 10.82310 | 3983 ft | 135 kts | 95° |
| 2026-04-29 17:31 | 49.52203 | 10.83733 | 3871 ft | 134 kts | 95° |
| 2026-04-29 17:32 | 49.52066 | 10.85153 | 3723 ft | 134 kts | 95° |
| 2026-04-29 17:32 | 49.51931 | 10.86563 | 3558 ft | 134 kts | 95° |
| 2026-04-29 17:32 | 49.51794 | 10.87982 | 3379 ft | 134 kts | 95° |
| 2026-04-29 17:32 | 49.51659 | 10.89392 | 3201 ft | 133 kts | 95° |
| 2026-04-29 17:33 | 49.51523 | 10.90793 | 3024 ft | 132 kts | 94° |
| 2026-04-29 17:33 | 49.51389 | 10.92191 | 2840 ft | 132 kts | 95° |
| 2026-04-29 17:33 | 49.51254 | 10.93582 | 2667 ft | 131 kts | 94° |
| 2026-04-29 17:33 | 49.51120 | 10.94972 | 2491 ft | 131 kts | 95° |
| 2026-04-29 17:34 | 49.50985 | 10.96363 | 2311 ft | 131 kts | 95° |
| 2026-04-29 17:34 | 49.50850 | 10.97746 | 2136 ft | 130 kts | 94° |
| 2026-04-29 17:34 | 49.50717 | 10.99121 | 1950 ft | 130 kts | 94° |
| 2026-04-29 17:34 | 49.50583 | 11.00500 | 1767 ft | 131 kts | 92° |
| 2026-04-29 17:35 | 49.50363 | 11.02745 | 1472 ft | 132 kts | 96° |
| 2026-04-29 17:35 | 49.50179 | 11.04636 | 1243 ft | 137 kts | 94° |
| 2026-04-29 17:35 | 49.50039 | 11.06073 | 1064 ft | 135 kts | 94° |
| 2026-04-29 17:36 | 49.49916 | 11.07346 | 1027 ft | 78 kts | 100° |
| 2026-04-29 17:36 | 49.49858 | 11.07867 | 1034 ft | 48 kts | 97° |
| 2026-04-29 17:36 | 49.49821 | 11.08363 | 1030 ft | 42 kts | 97° |
| 2026-04-29 17:36 | 49.49756 | 11.08547 | 1029 ft | 8 kts | 154° |
| 2026-04-29 17:37 | 49.49755 | 11.08548 | 1029 ft | 0 kts | 154° |
| 2026-04-29 17:37 | 49.49738 | 11.08557 | 1030 ft | 11 kts | 164° |
| 2026-04-29 17:37 | 49.49672 | 11.08498 | 1030 ft | 12 kts | 232° |
| 2026-04-29 17:38 | 49.49612 | 11.08383 | 1031 ft | 13 kts | 221° |
| 2026-04-29 17:38 | 49.49542 | 11.08342 | 1033 ft | 9 kts | 214° |
| 2026-04-29 17:38 | 49.49538 | 11.08250 | 1031 ft | 10 kts | 281° |
| 2026-04-29 17:38 | 49.49549 | 11.08148 | 1030 ft | 10 kts | 274° |
| 2026-04-29 17:39 | 49.49557 | 11.08052 | 1030 ft | 8 kts | 279° |
| 2026-04-29 17:39 | 49.49566 | 11.07981 | 1030 ft | 7 kts | 280° |
| 2026-04-29 17:39 | 49.49572 | 11.07915 | 1030 ft | 6 kts | 279° |
| 2026-04-29 17:39 | 49.49584 | 11.07802 | 1030 ft | 13 kts | 279° |
| 2026-04-29 17:40 | 49.49595 | 11.07679 | 1029 ft | 7 kts | 278° |
| 2026-04-29 17:40 | 49.49599 | 11.07635 | 1029 ft | 4 kts | 271° |
| 2026-04-29 17:40 | 49.49583 | 11.07600 | 1026 ft | 5 kts | 204° |
| 2026-04-29 17:40 | 49.49542 | 11.07586 | 1027 ft | 4 kts | 186° |
| 2026-04-29 17:41 | 49.49540 | 11.07586 | 1027 ft | 0 kts | 187° |